Time;durP1;ratioP1;P1;durP2;ratioP2;P2;SDS_P1;SDS_P2;PMS_P1;PMS_P2;Temp;Humidity;BMP_temperature;BMP_pressure;BME280_temperature;BME280_humidity;BME280_pressure;Samples;Min_cycle;Max_cycle;Signal;HPM_P1;HPM_P2
2022/03/22 00:00:40;;;;;;;35.25;21.95;;;0.60;99.90;;;;;;5003970;28;20077;-63
2022/03/22 00:03:08;;;;;;;31.05;21.17;;;0.60;99.90;;;;;;5002053;28;20050;-66
2022/03/22 00:05:39;;;;;;;29.60;20.92;;;0.60;99.90;;;;;;5002440;28;20050;-65
2022/03/22 00:08:07;;;;;;;31.50;20.65;;;0.60;99.90;;;;;;5003034;28;20483;-65
2022/03/22 00:10:35;;;;;;;32.03;22.90;;;0.60;99.90;;;;;;5000039;28;20757;-69
2022/03/22 00:13:03;;;;;;;29.75;20.52;;;0.50;99.90;;;;;;5003735;28;20145;-65
2022/03/22 00:15:30;;;;;;;32.50;22.40;;;0.50;99.90;;;;;;5002105;28;20428;-65
2022/03/22 00:18:19;;;;;;;28.10;19.75;;;0.50;99.90;;;;;;5005251;28;20054;-65
2022/03/22 00:20:46;;;;;;;33.03;21.30;;;0.50;99.90;;;;;;5007118;28;20073;-64
2022/03/22 00:23:13;;;;;;;29.13;19.80;;;0.50;99.90;;;;;;5000507;28;20069;-64
2022/03/22 00:25:40;;;;;;;33.92;21.15;;;0.50;99.90;;;;;;5001274;28;20826;-63
2022/03/22 00:28:07;;;;;;;36.88;21.65;;;0.50;99.90;;;;;;5003074;28;20086;-66
2022/03/22 00:30:35;;;;;;;33.40;21.00;;;0.50;99.90;;;;;;5002036;28;20418;-64
2022/03/22 00:33:05;;;;;;;30.95;19.95;;;0.40;99.90;;;;;;5002118;28;20061;-65
2022/03/22 00:35:37;;;;;;;31.15;21.40;;;0.50;99.90;;;;;;4983642;28;20652;-64
2022/03/22 00:38:13;;;;;;;30.80;19.40;;;0.40;99.90;;;;;;4998827;28;20516;-64
2022/03/22 00:40:40;;;;;;;36.53;19.52;;;0.40;99.90;;;;;;4995179;28;20046;-65
2022/03/22 00:43:08;;;;;;;33.97;19.65;;;0.40;99.90;;;;;;5000913;28;20053;-66
2022/03/22 00:45:37;;;;;;;28.58;20.17;;;0.40;99.90;;;;;;5003116;28;20645;-64
2022/03/22 00:48:06;;;;;;;29.92;19.48;;;0.40;99.90;;;;;;5003315;28;20132;-64
2022/03/22 00:50:36;;;;;;;29.23;19.47;;;0.40;99.90;;;;;;5001394;28;20050;-65
2022/03/22 00:53:05;;;;;;;32.38;21.15;;;0.40;99.90;;;;;;4999227;28;20292;-66
2022/03/22 00:55:32;;;;;;;30.65;20.63;;;0.40;99.90;;;;;;5001788;28;20081;-64
2022/03/22 00:57:59;;;;;;;29.23;18.35;;;0.40;99.90;;;;;;5003032;28;20145;-63
2022/03/22 01:00:27;;;;;;;28.02;18.98;;;0.40;99.90;;;;;;5002944;28;20385;-65
2022/03/22 01:02:58;;;;;;;27.20;18.63;;;0.40;99.90;;;;;;5002804;28;20060;-65
2022/03/22 01:05:26;;;;;;;;;;;0.40;99.90;;;;;;5000857;28;20542;-65
2022/03/22 01:08:03;;;;;;;36.40;20.95;;;0.50;99.90;;;;;;5003448;28;19986;-63
2022/03/22 01:10:31;;;;;;;27.27;19.27;;;0.50;99.90;;;;;;5002048;28;20741;-64
2022/03/22 01:12:58;;;;;;;26.70;19.55;;;0.50;99.90;;;;;;4992050;28;20092;-65
2022/03/22 01:15:32;;;;;;;30.95;20.98;;;0.50;99.90;;;;;;5001430;28;20125;-66
2022/03/22 01:18:08;;;;;;;30.52;19.95;;;0.50;99.90;;;;;;5003005;28;20054;-64
2022/03/22 01:20:38;;;;;;;28.60;19.27;;;0.50;99.90;;;;;;5002566;28;20053;-65
2022/03/22 01:23:09;;;;;;;30.38;19.55;;;0.50;99.90;;;;;;5000709;28;20058;-67
2022/03/22 01:25:39;;;;;;;34.97;21.13;;;0.50;99.90;;;;;;5000974;28;20073;-66
2022/03/22 01:28:08;;;;;;;32.47;20.58;;;0.50;99.90;;;;;;5003944;28;20100;-65
2022/03/22 01:30:37;;;;;;;34.15;22.83;;;0.50;99.90;;;;;;5002554;28;20050;-64
2022/03/22 01:33:05;;;;;;;32.72;23.10;;;0.40;99.90;;;;;;5001831;28;20169;-66
2022/03/22 01:35:33;;;;;;;33.40;22.13;;;0.40;99.90;;;;;;5003156;28;20157;-65
2022/03/22 01:38:00;;;;;;;34.55;21.25;;;0.40;99.90;;;;;;5002608;28;20073;-68
2022/03/22 01:40:29;;;;;;;30.65;21.45;;;0.40;99.90;;;;;;4995513;28;20045;-64
2022/03/22 01:42:57;;;;;;;34.88;24.33;;;0.40;99.90;;;;;;5002649;28;20054;-66
2022/03/22 01:45:24;;;;;;;37.88;22.67;;;0.40;99.90;;;;;;5001595;28;20140;-67
2022/03/22 01:47:52;;;;;;;37.47;25.30;;;0.40;99.90;;;;;;5002217;28;20129;-64
2022/03/22 01:50:20;;;;;;;38.08;25.60;;;0.40;99.90;;;;;;4991000;28;20056;-67
2022/03/22 01:52:47;;;;;;;35.95;26.02;;;0.40;99.90;;;;;;4992487;28;20742;-63
2022/03/22 01:55:17;;;;;;;39.25;26.02;;;0.40;99.90;;;;;;5000523;28;20073;-64
2022/03/22 01:57:45;;;;;;;39.90;27.38;;;0.40;99.90;;;;;;5001253;28;20209;-67
2022/03/22 02:00:20;;;;;;;41.38;28.42;;;0.40;99.90;;;;;;5003216;28;20482;-65
2022/03/22 02:05:55;;;;;;;42.42;28.67;;;0.40;99.90;;;;;;5000616;28;20380;-66
2022/03/22 02:08:26;;;;;;;43.25;30.63;;;0.40;99.90;;;;;;4990913;28;20072;-68
2022/03/22 02:10:53;;;;;;;44.42;30.92;;;0.40;99.90;;;;;;5002410;28;20050;-65
2022/03/22 02:13:20;;;;;;;53.45;33.65;;;0.40;99.90;;;;;;5000993;28;20076;-63
2022/03/22 02:15:54;;;;;;;46.67;32.72;;;0.50;99.90;;;;;;5002076;28;20179;-63
2022/03/22 02:18:21;;;;;;;52.60;35.55;;;0.50;99.90;;;;;;4990329;28;20069;-64
2022/03/22 02:20:48;;;;;;;61.15;39.10;;;0.50;99.90;;;;;;5002606;28;20609;-66
2022/03/22 02:23:51;;;;;;;53.83;33.67;;;0.50;99.90;;;;;;4988129;28;20056;-62
2022/03/22 02:26:19;;;;;;;54.33;36.13;;;0.60;99.90;;;;;;5000961;28;20054;-66
2022/03/22 02:28:46;;;;;;;54.40;37.10;;;0.70;99.90;;;;;;5000030;28;20137;-64
2022/03/22 02:31:13;;;;;;;47.83;34.78;;;0.70;99.90;;;;;;5000427;28;20050;-65
2022/03/22 02:33:42;;;;;;;58.28;38.88;;;0.70;99.90;;;;;;5002815;28;20357;-65
2022/03/22 02:36:10;;;;;;;61.88;37.47;;;0.70;99.90;;;;;;5005865;28;20084;-64
2022/03/22 02:38:38;;;;;;;52.38;37.92;;;0.70;99.90;;;;;;5006208;28;20075;-65
2022/03/22 02:41:05;;;;;;;56.60;37.13;;;0.70;99.90;;;;;;5003952;28;20078;-70
2022/03/22 02:43:34;;;;;;;47.97;35.42;;;0.70;99.90;;;;;;5008892;28;20052;-65
2022/03/22 02:46:01;;;;;;;56.75;39.95;;;0.70;99.90;;;;;;4998212;28;20058;-66
2022/03/22 02:48:28;;;;;;;55.47;38.70;;;0.70;99.90;;;;;;5005193;28;20050;-65
2022/03/22 02:50:54;;;;;;;55.47;37.25;;;0.70;99.90;;;;;;5005843;28;20049;-64
2022/03/22 02:53:22;;;;;;;56.17;39.15;;;0.70;99.90;;;;;;4996561;28;20054;-66
2022/03/22 02:55:49;;;;;;;60.60;38.97;;;0.70;99.90;;;;;;5003048;28;20667;-67
2022/03/22 02:58:16;;;;;;;60.22;39.90;;;0.70;99.90;;;;;;4996916;28;20072;-64
2022/03/22 03:00:43;;;;;;;58.30;39.90;;;0.60;99.90;;;;;;5003559;28;20071;-67
2022/03/22 03:03:10;;;;;;;64.25;40.35;;;0.60;99.90;;;;;;5003246;28;20613;-62
2022/03/22 03:05:38;;;;;;;53.25;37.10;;;0.70;99.90;;;;;;5003140;28;20050;-66
2022/03/22 03:08:07;;;;;;;66.63;43.13;;;0.60;99.90;;;;;;5002685;28;20185;-69
2022/03/22 03:10:34;;;;;;;58.75;42.70;;;0.70;99.90;;;;;;5001033;28;20054;-64
2022/03/22 03:13:03;;;;;;;62.10;41.42;;;0.70;99.90;;;;;;5002732;28;20077;-64
2022/03/22 03:15:30;;;;;;;60.67;42.40;;;0.60;99.90;;;;;;5003357;28;20541;-66
2022/03/22 03:17:58;;;;;;;59.80;42.85;;;0.70;99.90;;;;;;5004468;28;20276;-65
2022/03/22 03:20:25;;;;;;;67.85;46.35;;;0.60;99.90;;;;;;4996788;28;20291;-63
2022/03/22 03:22:52;;;;;;;58.97;41.92;;;0.70;99.90;;;;;;5004107;28;20146;-66
2022/03/22 03:25:20;;;;;;;64.18;45.05;;;0.70;99.90;;;;;;5003001;28;20050;-64
2022/03/22 03:27:48;;;;;;;66.72;46.38;;;0.70;99.90;;;;;;5003075;28;20483;-65
2022/03/22 03:30:15;;;;;;;64.32;47.70;;;0.80;99.90;;;;;;5004470;28;20061;-68
2022/03/22 03:32:43;;;;;;;67.75;47.15;;;0.80;99.90;;;;;;5004975;28;20172;-64
2022/03/22 03:35:10;;;;;;;69.13;46.95;;;0.80;99.90;;;;;;5002348;28;20496;-64
2022/03/22 03:37:39;;;;;;;62.10;43.58;;;0.90;99.90;;;;;;5003686;28;20388;-64
2022/03/22 03:40:07;;;;;;;68.88;46.50;;;0.90;99.90;;;;;;5004301;28;20054;-64
2022/03/22 03:42:41;;;;;;;74.85;52.13;;;0.90;99.90;;;;;;5004048;28;20054;-65
2022/03/22 03:47:56;;;;;;;74.07;48.75;;;0.90;99.90;;;;;;5004487;28;20475;-65
2022/03/22 03:50:24;;;;;;;67.90;46.53;;;0.90;99.90;;;;;;5004689;28;20061;-64
2022/03/22 03:52:51;;;;;;;71.72;48.13;;;0.90;99.90;;;;;;5006803;28;20500;-63
2022/03/22 03:55:18;;;;;;;68.40;50.17;;;0.90;99.90;;;;;;5003841;28;20476;-65
2022/03/22 03:57:45;;;;;;;67.38;48.80;;;0.90;99.90;;;;;;5003720;28;20048;-66
2022/03/22 04:00:13;;;;;;;72.22;49.80;;;0.90;99.90;;;;;;5004673;28;20626;-64
2022/03/22 04:02:41;;;;;;;67.60;47.05;;;0.90;99.90;;;;;;5004156;28;20045;-63
2022/03/22 04:05:11;;;;;;;74.97;50.05;;;0.90;99.90;;;;;;5002470;28;20049;-64
2022/03/22 04:07:38;;;;;;;68.65;50.78;;;0.90;99.90;;;;;;5003731;28;20058;-65
2022/03/22 04:10:06;;;;;;;68.72;50.03;;;1.00;99.90;;;;;;5005922;28;20550;-67
2022/03/22 04:12:40;;;;;;;63.75;46.97;;;1.00;99.90;;;;;;5009606;28;20172;-64
2022/03/22 04:15:08;;;;;;;70.30;50.22;;;1.00;99.90;;;;;;4998120;28;20096;-63
2022/03/22 04:17:35;;;;;;;69.53;50.05;;;1.00;99.90;;;;;;5002891;28;20080;-66
2022/03/22 04:20:03;;;;;;;68.60;47.60;;;1.00;99.90;;;;;;5004290;28;20109;-65
2022/03/22 04:22:30;;;;;;;73.90;51.40;;;1.00;99.90;;;;;;5003478;28;20057;-63
2022/03/22 04:24:57;;;;;;;72.68;48.60;;;0.90;99.90;;;;;;5005899;28;20049;-63
2022/03/22 04:32:56;;;;;;;72.25;48.47;;;1.00;99.90;;;;;;4997012;28;20771;-65
2022/03/22 04:35:28;;;;;;;71.03;48.30;;;0.90;99.90;;;;;;4998186;28;20058;-68
2022/03/22 04:37:56;;;;;;;75.68;47.70;;;0.90;99.90;;;;;;4996631;28;20165;-63
2022/03/22 04:40:25;;;;;;;73.47;50.70;;;0.90;99.90;;;;;;4999901;28;20072;-64
2022/03/22 04:42:52;;;;;;;69.80;48.25;;;0.90;99.90;;;;;;5002108;28;20072;-63
2022/03/22 04:45:19;;;;;;;74.05;48.97;;;0.90;99.90;;;;;;4999562;28;20432;-63
2022/03/22 04:47:46;;;;;;;69.45;46.45;;;0.90;99.90;;;;;;5002728;28;20052;-65
2022/03/22 04:50:16;;;;;;;70.43;46.60;;;0.90;99.90;;;;;;5002523;28;20141;-64
2022/03/22 04:58:16;;;;;;;73.80;49.78;;;1.00;99.90;;;;;;5002880;28;20645;-65
2022/03/22 05:00:43;;;;;;;72.65;50.00;;;0.90;99.90;;;;;;5002404;28;20526;-66
2022/03/22 05:03:10;;;;;;;74.68;46.03;;;1.00;99.90;;;;;;4999522;28;20049;-66
2022/03/22 05:08:23;;;;;;;69.47;48.90;;;1.00;99.90;;;;;;5002801;28;20670;-64
2022/03/22 05:10:49;;;;;;;71.32;49.65;;;1.10;99.90;;;;;;4998125;28;20504;-63
2022/03/22 05:13:20;;;;;;;72.70;47.55;;;1.10;99.90;;;;;;5000341;28;20064;-64
2022/03/22 05:15:47;;;;;;;70.20;50.05;;;1.10;99.90;;;;;;4994033;28;20069;-66
2022/03/22 05:18:15;;;;;;;70.97;49.65;;;1.20;99.90;;;;;;5002707;28;20053;-64
2022/03/22 05:20:42;;;;;;;72.13;50.25;;;1.20;99.90;;;;;;5001876;28;20050;-64
2022/03/22 05:23:10;;;;;;;72.25;50.17;;;1.20;99.90;;;;;;4999491;28;20062;-63
2022/03/22 05:25:36;;;;;;;63.40;46.03;;;1.30;99.90;;;;;;4997826;28;20054;-68
2022/03/22 05:28:04;;;;;;;70.10;47.67;;;1.30;99.90;;;;;;4991579;28;20073;-65
2022/03/22 05:30:32;;;;;;;70.95;47.88;;;1.30;99.90;;;;;;5003141;28;20046;-62
2022/03/22 05:32:59;;;;;;;70.78;45.42;;;1.40;99.90;;;;;;5002196;28;20065;-65
2022/03/22 05:35:26;;;;;;;66.97;47.28;;;1.40;99.90;;;;;;4999434;28;20137;-63
2022/03/22 05:37:53;;;;;;;67.35;45.65;;;1.40;99.90;;;;;;5002379;28;20054;-62
2022/03/22 05:40:20;;;;;;;69.60;47.22;;;1.40;99.90;;;;;;5002247;28;20046;-63
2022/03/22 05:42:48;;;;;;;71.53;44.80;;;1.40;99.90;;;;;;5001070;28;20077;-62
2022/03/22 05:45:15;;;;;;;69.35;47.47;;;1.50;99.90;;;;;;5001378;28;20069;-64
2022/03/22 05:47:42;;;;;;;74.28;47.25;;;1.50;99.90;;;;;;5002076;28;20388;-63
2022/03/22 05:50:10;;;;;;;73.60;46.90;;;1.60;99.90;;;;;;5002299;28;20555;-63
2022/03/22 05:52:44;;;;;;;68.20;45.97;;;1.70;99.90;;;;;;4997526;28;20052;-65
2022/03/22 05:55:11;;;;;;;63.72;45.92;;;1.70;99.90;;;;;;4990154;28;20164;-64
2022/03/22 05:57:38;;;;;;;70.90;49.25;;;1.80;99.90;;;;;;4988597;28;20142;-62
2022/03/22 06:00:06;;;;;;;66.47;42.92;;;1.90;99.90;;;;;;4985536;28;20181;-63
2022/03/22 06:02:37;;;;;;;66.65;46.00;;;2.00;99.90;;;;;;4993012;28;20063;-63
2022/03/22 06:05:08;;;;;;;63.28;44.50;;;2.10;99.90;;;;;;4997790;28;20042;-67
2022/03/22 06:07:35;;;;;;;;;;;2.20;99.90;;;;;;4995632;28;20065;-67
2022/03/22 06:10:04;;;;;;;61.00;42.28;;;2.20;99.90;;;;;;4996127;28;20102;-66
2022/03/22 06:12:42;;;;;;;62.17;42.47;;;2.20;99.90;;;;;;5001360;28;20053;-63
2022/03/22 06:15:21;;;;;;;68.82;45.97;;;2.30;99.90;;;;;;4998759;28;20427;-63
2022/03/22 06:17:49;;;;;;;61.42;41.70;;;2.40;99.90;;;;;;4994290;28;20061;-63
2022/03/22 06:20:21;;;;;;;66.65;44.13;;;2.40;99.90;;;;;;4992307;28;20054;-65
2022/03/22 06:22:48;;;;;;;60.40;41.03;;;2.50;99.90;;;;;;4989491;28;20092;-63
2022/03/22 06:25:17;;;;;;;60.67;41.47;;;2.60;99.90;;;;;;4990124;28;20054;-66
2022/03/22 06:27:46;;;;;;;57.88;42.22;;;2.60;99.90;;;;;;4988157;28;20094;-69
2022/03/22 06:30:15;;;;;;;61.15;41.67;;;2.80;99.90;;;;;;4996215;28;20074;-66
2022/03/22 06:32:50;;;;;;;59.20;43.83;;;2.80;99.90;;;;;;4996183;28;20169;-63
2022/03/22 06:35:24;;;;;;;57.80;40.75;;;3.00;99.90;;;;;;4988975;28;20066;-67
2022/03/22 06:37:51;;;;;;;52.22;39.90;;;3.10;99.90;;;;;;5005142;28;20045;-63
2022/03/22 06:40:20;;;;;;;62.78;42.40;;;3.20;99.90;;;;;;5004790;28;20141;-65
2022/03/22 06:42:48;;;;;;;57.90;40.85;;;3.30;99.90;;;;;;5001493;28;20096;-65
2022/03/22 06:45:16;;;;;;;72.72;41.15;;;3.40;99.90;;;;;;4998241;28;20092;-66
2022/03/22 06:47:44;;;;;;;66.25;42.05;;;3.60;99.90;;;;;;5003986;28;20500;-63
2022/03/22 06:50:13;;;;;;;64.35;39.45;;;3.70;99.90;;;;;;5004782;28;20161;-65
2022/03/22 06:52:40;;;;;;;58.10;39.17;;;3.90;99.90;;;;;;5004434;28;20765;-65
2022/03/22 06:55:08;;;;;;;53.67;37.88;;;4.00;99.90;;;;;;5002034;28;20778;-68
2022/03/22 06:57:36;;;;;;;50.85;36.30;;;4.20;99.90;;;;;;4999187;28;20046;-64
2022/03/22 07:00:09;;;;;;;53.70;35.47;;;4.20;99.90;;;;;;5003950;28;20073;-66
2022/03/22 07:02:40;;;;;;;57.22;37.72;;;4.40;99.90;;;;;;5000027;28;20534;-65
2022/03/22 07:05:09;;;;;;;55.22;35.88;;;4.50;99.90;;;;;;5000140;28;20149;-64
2022/03/22 07:07:37;;;;;;;62.85;37.78;;;4.70;99.90;;;;;;5004543;28;20479;-64
2022/03/22 07:10:05;;;;;;;51.10;35.00;;;4.80;99.90;;;;;;5002525;28;20082;-66
2022/03/22 07:12:32;;;;;;;59.67;36.83;;;4.90;99.90;;;;;;5002976;28;20073;-65
2022/03/22 07:15:03;;;;;;;50.15;35.70;;;5.00;99.90;;;;;;5004882;28;20149;-69
2022/03/22 07:17:30;;;;;;;48.20;34.28;;;5.00;99.90;;;;;;5001527;28;20039;-65
2022/03/22 07:19:57;;;;;;;48.05;34.85;;;5.10;99.90;;;;;;5004829;28;20054;-67
2022/03/22 07:22:26;;;;;;;49.88;33.42;;;5.20;99.90;;;;;;5004735;28;20419;-66
2022/03/22 07:24:53;;;;;;;50.95;32.55;;;5.20;99.90;;;;;;5003731;28;20487;-65
2022/03/22 07:27:20;;;;;;;55.65;33.13;;;5.30;99.90;;;;;;5002945;28;20145;-66
2022/03/22 07:29:47;;;;;;;45.80;30.85;;;5.50;99.90;;;;;;5004328;28;20092;-63
2022/03/22 07:32:14;;;;;;;38.53;28.90;;;5.60;99.90;;;;;;5004112;28;20558;-67
2022/03/22 07:34:41;;;;;;;53.17;32.78;;;5.80;99.90;;;;;;5003578;28;21528;-65
2022/03/22 07:37:08;;;;;;;45.60;32.00;;;5.90;99.90;;;;;;5002602;28;20464;-65
2022/03/22 07:39:35;;;;;;;37.08;28.25;;;6.00;99.90;;;;;;5003661;28;20806;-66
2022/03/22 07:42:02;;;;;;;44.22;29.42;;;6.20;99.90;;;;;;5004717;28;20081;-66
2022/03/22 07:44:31;;;;;;;43.40;30.13;;;6.20;99.90;;;;;;4999390;28;20038;-66
2022/03/22 07:46:59;;;;;;;45.20;29.85;;;6.30;99.90;;;;;;5003147;28;20066;-66
2022/03/22 07:54:58;;;;;;;40.53;27.90;;;6.70;99.90;;;;;;5004350;28;20186;-65
2022/03/22 07:57:25;;;;;;;43.00;29.40;;;6.80;99.90;;;;;;5002078;28;20050;-67
2022/03/22 07:59:51;;;;;;;43.13;25.70;;;6.90;99.90;;;;;;5003796;28;20059;-65
2022/03/22 08:02:18;;;;;;;35.88;26.02;;;7.10;99.90;;;;;;5003936;28;20077;-63
2022/03/22 08:04:46;;;;;;;37.15;27.13;;;7.20;99.90;;;;;;5003266;28;20041;-63
2022/03/22 08:07:12;;;;;;;37.53;26.05;;;7.30;99.90;;;;;;5002397;28;20583;-63
2022/03/22 08:09:39;;;;;;;42.33;28.50;;;7.40;99.90;;;;;;5003283;28;20736;-65
2022/03/22 08:12:07;;;;;;;41.95;28.42;;;7.50;99.90;;;;;;5004574;28;20075;-66
2022/03/22 08:14:34;;;;;;;39.53;26.92;;;7.50;99.90;;;;;;5003831;28;20084;-62
2022/03/22 08:17:01;;;;;;;34.90;27.75;;;7.60;99.90;;;;;;5003276;28;20411;-63
2022/03/22 08:19:29;;;;;;;35.03;25.92;;;7.70;99.90;;;;;;4990704;28;20192;-63
2022/03/22 08:21:56;;;;;;;38.28;28.35;;;7.80;99.90;;;;;;5003178;28;20136;-65
2022/03/22 08:24:23;;;;;;;32.72;24.75;;;7.90;99.90;;;;;;5000860;28;20060;-65
2022/03/22 08:26:50;;;;;;;40.50;26.35;;;8.10;99.90;;;;;;5002565;28;20081;-65
2022/03/22 08:29:17;;;;;;;37.50;26.75;;;8.10;99.90;;;;;;4999928;28;20157;-63
2022/03/22 08:31:44;;;;;;;32.97;24.58;;;8.20;99.90;;;;;;5003295;28;20049;-62
2022/03/22 08:34:11;;;;;;;33.95;24.38;;;8.30;99.90;;;;;;5002789;28;20073;-62
2022/03/22 08:36:38;;;;;;;32.65;24.73;;;8.40;99.90;;;;;;4997775;28;20103;-63
2022/03/22 08:39:05;;;;;;;31.77;24.30;;;8.50;99.90;;;;;;4990502;28;20069;-65
2022/03/22 08:41:32;;;;;;;35.38;24.92;;;8.60;99.90;;;;;;5001784;28;20058;-63
2022/03/22 08:43:59;;;;;;;33.75;22.73;;;8.70;99.90;;;;;;5002716;28;20084;-63
2022/03/22 08:46:26;;;;;;;31.30;22.40;;;8.80;99.90;;;;;;5003288;28;20348;-63
2022/03/22 08:48:53;;;;;;;33.03;24.63;;;8.90;99.90;;;;;;5002081;28;20050;-62
2022/03/22 08:51:26;;;;;;;33.58;22.17;;;9.00;99.90;;;;;;5001888;28;20137;-63
2022/03/22 08:53:54;;;;;;;36.05;22.73;;;9.10;99.90;;;;;;5002991;28;20880;-66
2022/03/22 08:56:25;;;;;;;41.05;24.08;;;9.20;99.90;;;;;;5003156;28;20745;-67
2022/03/22 08:58:52;;;;;;;28.80;21.98;;;9.20;99.90;;;;;;5002873;28;20178;-64
2022/03/22 09:01:38;;;;;;;36.80;24.95;;;9.30;99.90;;;;;;5001072;28;20451;-68
2022/03/22 09:06:51;;;;;;;26.95;20.17;;;9.50;99.90;;;;;;4996169;28;20069;-68
2022/03/22 09:09:18;;;;;;;29.38;20.88;;;9.60;99.90;;;;;;5001009;28;20699;-65
2022/03/22 09:11:45;;;;;;;28.13;21.42;;;9.70;99.90;;;;;;5003322;28;20064;-66
2022/03/22 09:14:12;;;;;;;33.85;21.30;;;9.80;99.80;;;;;;5002448;28;20060;-66
2022/03/22 09:16:39;;;;;;;56.53;23.73;;;9.90;99.70;;;;;;4995976;28;20108;-64
2022/03/22 09:19:06;;;;;;;29.10;21.00;;;10.00;99.90;;;;;;4995712;28;20161;-66
2022/03/22 09:21:33;;;;;;;26.77;20.00;;;10.10;99.00;;;;;;5001445;28;20049;-65
2022/03/22 09:24:03;;;;;;;26.52;18.60;;;10.20;98.70;;;;;;5002617;28;20069;-68
2022/03/22 09:26:30;;;;;;;33.55;22.05;;;10.30;95.60;;;;;;5002480;28;20503;-63
2022/03/22 09:28:57;;;;;;;30.77;19.83;;;10.30;95.90;;;;;;5001427;28;20058;-63
2022/03/22 09:31:24;;;;;;;25.65;17.38;;;10.40;96.10;;;;;;5000764;28;20054;-66
2022/03/22 09:33:52;;;;;;;27.13;19.08;;;10.50;94.80;;;;;;5002563;28;20073;-67
2022/03/22 09:36:19;;;;;;;30.48;18.80;;;10.60;95.50;;;;;;4997940;28;20062;-63
2022/03/22 09:38:46;;;;;;;37.22;21.10;;;10.60;93.60;;;;;;5002458;28;20156;-64
2022/03/22 09:41:14;;;;;;;38.58;24.55;;;10.70;93.30;;;;;;5002870;28;20077;-64
2022/03/22 09:43:48;;;;;;;38.17;26.23;;;10.50;98.60;;;;;;5005501;28;20137;-64
2022/03/22 09:46:18;;;;;;;39.42;23.20;;;10.30;99.90;;;;;;5001176;28;20077;-66
2022/03/22 09:48:47;;;;;;;40.63;27.48;;;10.30;98.10;;;;;;5004685;28;20046;-64
2022/03/22 09:54:01;;;;;;;28.58;20.60;;;10.00;99.90;;;;;;4995091;28;20098;-66
2022/03/22 09:56:32;;;;;;;39.67;24.83;;;9.90;96.70;;;;;;5005365;28;20419;-64
2022/03/22 09:59:00;;;;;;;44.78;26.42;;;10.00;98.70;;;;;;4998077;28;20416;-67
2022/03/22 10:01:27;;;;;;;56.95;24.55;;;9.90;99.90;;;;;;5001083;28;20132;-66
2022/03/22 10:03:55;;;;;;;28.90;19.88;;;9.80;99.90;;;;;;4995701;28;20058;-65
2022/03/22 10:06:22;;;;;;;35.03;23.30;;;10.00;96.20;;;;;;5005432;28;20184;-65
2022/03/22 10:08:50;;;;;;;48.70;22.50;;;10.30;95.40;;;;;;5006287;28;20061;-65
2022/03/22 10:11:18;;;;;;;30.20;20.98;;;10.50;93.10;;;;;;5017725;28;20136;-65
2022/03/22 10:13:52;;;;;;;41.22;22.50;;;10.50;91.50;;;;;;5005292;28;20042;-65
2022/03/22 10:16:20;;;;;;;32.78;21.05;;;10.70;91.90;;;;;;5002823;28;20057;-64
2022/03/22 10:18:48;;;;;;;25.98;19.90;;;10.80;92.00;;;;;;5006104;28;20103;-66
2022/03/22 10:21:15;;;;;;;27.23;19.60;;;10.80;92.30;;;;;;5003989;28;20058;-64
2022/03/22 10:23:55;;;;;;;31.92;20.98;;;10.80;90.30;;;;;;5005323;28;20053;-64
2022/03/22 10:26:33;;;;;;;42.15;20.50;;;10.90;90.30;;;;;;5003376;28;20050;-63
2022/03/22 10:29:00;;;;;;;37.13;21.20;;;11.00;89.10;;;;;;5005589;28;20401;-65
2022/03/22 10:31:34;;;;;;;34.10;20.15;;;11.00;88.20;;;;;;5005308;28;20049;-64
2022/03/22 10:34:02;;;;;;;25.73;18.38;;;11.10;89.40;;;;;;5005150;28;20136;-66
2022/03/22 10:36:34;;;;;;;18.38;15.73;;;11.20;89.20;;;;;;5004483;28;20208;-66
2022/03/22 10:39:05;;;;;;;26.23;17.90;;;11.30;84.70;;;;;;5005536;28;20046;-66
2022/03/22 10:41:37;;;;;;;30.40;17.95;;;11.30;84.50;;;;;;5003674;28;20900;-63
2022/03/22 10:44:16;;;;;;;32.25;18.55;;;11.40;84.40;;;;;;4999250;28;20541;-63
2022/03/22 10:46:46;;;;;;;28.17;19.67;;;11.50;86.50;;;;;;5005263;28;20101;-64
2022/03/22 10:49:18;;;;;;;26.47;18.23;;;11.60;84.00;;;;;;4997337;28;20049;-63
2022/03/22 10:52:08;;;;;;;28.67;17.33;;;11.70;84.30;;;;;;5003010;28;20320;-65
2022/03/22 10:54:35;;;;;;;22.23;16.15;;;11.90;82.40;;;;;;5005153;28;20057;-65
2022/03/22 10:57:03;;;;;;;26.38;17.52;;;11.90;78.90;;;;;;5003096;28;20115;-65
2022/03/22 10:59:30;;;;;;;22.38;16.08;;;12.00;79.90;;;;;;5003371;28;20046;-63
2022/03/22 11:01:57;;;;;;;23.63;17.40;;;12.10;76.40;;;;;;5006042;28;20069;-65
2022/03/22 11:04:25;;;;;;;20.98;16.95;;;12.10;76.10;;;;;;5003767;28;20049;-64
2022/03/22 11:06:54;;;;;;;18.67;15.27;;;12.20;76.40;;;;;;5004365;28;20081;-63
2022/03/22 11:09:21;;;;;;;32.38;16.00;;;12.30;75.10;;;;;;5000139;28;20805;-66
2022/03/22 11:11:50;;;;;;;23.25;16.80;;;12.20;76.50;;;;;;5005409;28;20088;-64
2022/03/22 11:14:19;;;;;;;27.63;17.27;;;12.20;74.80;;;;;;5002716;28;20054;-63
2022/03/22 11:16:48;;;;;;;22.65;17.25;;;12.20;73.70;;;;;;5003694;28;20069;-65
2022/03/22 11:19:22;;;;;;;21.67;17.20;;;12.30;73.00;;;;;;4999227;28;20081;-64
2022/03/22 11:21:49;;;;;;;27.33;17.10;;;12.20;72.30;;;;;;5004315;28;20404;-63
2022/03/22 11:24:24;;;;;;;22.70;17.02;;;12.20;73.70;;;;;;4995071;28;20531;-67
2022/03/22 11:26:54;;;;;;;23.23;16.33;;;12.30;72.80;;;;;;4998780;28;20140;-62
2022/03/22 11:29:25;;;;;;;21.65;16.40;;;12.30;73.60;;;;;;5003598;28;20077;-64
2022/03/22 11:34:42;;;;;;;22.10;18.38;;;12.40;70.90;;;;;;5004641;28;20046;-63
2022/03/22 11:37:10;;;;;;;22.73;17.95;;;12.30;71.00;;;;;;5002519;28;20574;-63
2022/03/22 11:42:25;;;;;;;25.88;18.58;;;12.30;70.10;;;;;;5003660;28;20504;-69
2022/03/22 11:44:57;;;;;;;26.90;17.37;;;12.50;70.20;;;;;;5001979;28;20152;-65
2022/03/22 11:47:27;;;;;;;25.58;17.98;;;12.60;68.20;;;;;;5002528;28;20367;-70
2022/03/22 11:49:57;;;;;;;24.73;17.67;;;12.60;67.80;;;;;;5004413;28;20156;-67
2022/03/22 11:52:35;;;;;;;27.38;17.33;;;12.70;68.00;;;;;;4997951;28;20754;-66
2022/03/22 11:55:15;;;;;;;23.83;17.80;;;12.80;68.30;;;;;;4985242;28;20081;-63
2022/03/22 11:57:46;;;;;;;30.73;18.20;;;12.80;67.30;;;;;;4987149;28;20120;-64
2022/03/22 12:00:16;;;;;;;25.10;17.00;;;12.80;64.00;;;;;;4992583;28;20798;-64
2022/03/22 12:02:51;;;;;;;27.63;17.02;;;12.70;65.20;;;;;;4991726;28;20089;-65
2022/03/22 12:05:20;;;;;;;24.25;17.77;;;12.70;64.90;;;;;;4991463;28;20116;-69
2022/03/22 12:07:47;;;;;;;26.95;15.57;;;12.80;65.80;;;;;;4993515;28;20046;-65
2022/03/22 12:10:17;;;;;;;27.80;18.83;;;12.80;66.20;;;;;;4988677;28;20081;-63
2022/03/22 12:12:49;;;;;;;25.48;16.73;;;12.80;66.80;;;;;;4997315;28;20391;-66
2022/03/22 12:15:18;;;;;;;21.05;17.63;;;12.80;65.30;;;;;;4997242;28;20129;-64
2022/03/22 12:17:46;;;;;;;24.73;17.73;;;12.80;65.40;;;;;;4998606;28;20768;-65
2022/03/22 12:20:18;;;;;;;24.70;16.63;;;12.80;66.10;;;;;;5001749;28;20049;-65
2022/03/22 12:22:50;;;;;;;22.33;17.05;;;12.90;65.70;;;;;;5002507;28;20411;-67
2022/03/22 12:25:22;;;;;;;18.10;14.02;;;13.00;63.70;;;;;;4999311;28;20088;-66
2022/03/22 12:28:00;;;;;;;19.45;13.98;;;12.90;63.40;;;;;;5000197;28;20169;-65
2022/03/22 12:30:48;;;;;;;24.95;16.40;;;12.80;63.10;;;;;;4996302;28;20092;-66
2022/03/22 12:33:21;;;;;;;25.80;15.55;;;12.80;64.30;;;;;;5000405;28;20541;-64
2022/03/22 12:35:50;;;;;;;20.48;15.40;;;12.70;62.10;;;;;;4992680;28;20062;-68
2022/03/22 12:38:17;;;;;;;23.48;15.50;;;12.70;63.70;;;;;;4991957;28;20054;-65
2022/03/22 12:40:44;;;;;;;44.92;16.90;;;12.70;63.70;;;;;;5000291;28;20803;-66
2022/03/22 12:43:19;;;;;;;25.90;15.57;;;12.80;63.20;;;;;;4999441;28;20045;-64
2022/03/22 12:45:48;;;;;;;20.88;15.50;;;12.80;62.60;;;;;;4994226;28;20054;-64
2022/03/22 12:48:21;;;;;;;17.75;15.23;;;12.80;61.20;;;;;;4997844;28;20059;-66
2022/03/22 12:50:49;;;;;;;39.92;17.67;;;12.80;61.20;;;;;;4998435;28;20041;-64
2022/03/22 12:53:17;;;;;;;22.40;14.15;;;12.70;62.10;;;;;;4985328;28;20164;-68
2022/03/22 12:55:44;;;;;;;23.25;14.05;;;12.80;61.70;;;;;;4996207;28;20144;-64
2022/03/22 12:58:11;;;;;;;21.65;15.00;;;12.90;61.70;;;;;;4998844;28;20077;-65
2022/03/22 13:00:40;;;;;;;31.42;16.45;;;13.00;61.30;;;;;;4994565;28;20050;-64
2022/03/22 13:03:13;;;;;;;22.85;15.77;;;13.00;60.70;;;;;;4994390;28;20046;-66
2022/03/22 13:05:47;;;;;;;19.85;15.80;;;12.90;60.20;;;;;;4991832;28;20057;-68
2022/03/22 13:08:27;;;;;;;21.40;17.05;;;12.90;61.00;;;;;;4992193;28;20196;-69
2022/03/22 13:16:34;;;;;;;19.88;15.23;;;13.00;61.30;;;;;;4988761;28;20045;-63
2022/03/22 13:19:02;;;;;;;28.15;17.27;;;12.90;61.50;;;;;;4993793;28;20069;-62
2022/03/22 13:21:32;;;;;;;21.65;15.48;;;12.80;61.00;;;;;;4989832;28;20113;-64
2022/03/22 13:24:22;;;;;;;29.33;19.03;;;12.90;61.90;;;;;;4991928;28;20147;-63
2022/03/22 13:26:52;;;;;;;25.83;17.17;;;12.90;61.10;;;;;;4994229;28;20145;-64